CheckWX is a tool to help pilots better visualize weather data.  It is not intended as a substitute for an official pre-flight weather briefing.

06:47:09 UTC

CYJT METAR
Stephenville Airport
Stephenville, Canada
Current

47 mins ago

CYJT 210600Z 08010KT 15SM SCT030 BKN120 06/M00 A2978 RMK SC4AC2 SLP087
Observed
May-21 @ 06:00 UTC
Wind
  • 080° at 10 KTS
Visibility
15 SM
Flight Rules
VFR
Cloud Levels
  • Scattered at 3,000' AGL
  • Broken at 12,000' AGL
Temperature
C / 43°F
Dewpoint
C / 32°F
Humidity
66%
Altimeter
29.78" Hg
Pressure
1008.42 hPa
Previous

2 hours ago

CYJT 210500Z 07009KT 15SM SCT028 BKN120 06/00 A2980 RMK SC4AC2 SLP094
Observed
May-21 @ 05:00 UTC
Wind
  • 070° at 9 KTS
Visibility
15 SM
Flight Rules
VFR
Cloud Levels
  • Scattered at 2,800' AGL
  • Broken at 12,000' AGL
Temperature
C / 43°F
Dewpoint
C / 32°F
Humidity
66%
Altimeter
29.8" Hg
Pressure
1009.12 hPa
Previous

3 hours ago

CYJT 210400Z 08007KT 15SM FEW030 SCT120 05/M00 A2982 RMK SC2AC2 SLP099
Observed
May-21 @ 04:00 UTC
Wind
  • 080° at 7 KTS
Visibility
15 SM
Flight Rules
VFR
Cloud Levels
  • Few at 3,000' AGL
  • Scattered at 12,000' AGL
Temperature
C / 41°F
Dewpoint
C / 32°F
Humidity
70%
Altimeter
29.82" Hg
Pressure
1009.82 hPa